sensor_id;sensor_type;location;lat;lon;timestamp;P1;durP1;ratioP1;P2;durP2;ratioP2
52898;SDS011;38763;53.096;6.062;2023-09-12T00:00:49;48.75;;;27.50;;
52898;SDS011;38763;53.096;6.062;2023-09-12T00:03:18;51.67;;;27.58;;
52898;SDS011;38763;53.096;6.062;2023-09-12T00:05:50;54.67;;;28.35;;
52898;SDS011;38763;53.096;6.062;2023-09-12T00:08:16;42.60;;;26.77;;
52898;SDS011;38763;53.096;6.062;2023-09-12T00:10:42;45.53;;;27.75;;
52898;SDS011;38763;53.096;6.062;2023-09-12T00:13:08;43.90;;;28.23;;
52898;SDS011;38763;53.096;6.062;2023-09-12T00:15:33;53.50;;;29.05;;
52898;SDS011;38763;53.096;6.062;2023-09-12T00:17:59;45.72;;;28.40;;
52898;SDS011;38763;53.096;6.062;2023-09-12T00:20:25;51.38;;;29.63;;
52898;SDS011;38763;53.096;6.062;2023-09-12T00:22:50;52.25;;;30.02;;
52898;SDS011;38763;53.096;6.062;2023-09-12T00:25:18;45.88;;;28.42;;
52898;SDS011;38763;53.096;6.062;2023-09-12T00:27:43;51.90;;;29.98;;
52898;SDS011;38763;53.096;6.062;2023-09-12T00:30:09;50.28;;;28.92;;
52898;SDS011;38763;53.096;6.062;2023-09-12T00:32:35;49.80;;;28.67;;
52898;SDS011;38763;53.096;6.062;2023-09-12T00:35:01;47.97;;;28.42;;
52898;SDS011;38763;53.096;6.062;2023-09-12T00:37:26;48.28;;;28.83;;
52898;SDS011;38763;53.096;6.062;2023-09-12T00:39:52;49.65;;;28.25;;
52898;SDS011;38763;53.096;6.062;2023-09-12T00:42:18;48.63;;;28.33;;
52898;SDS011;38763;53.096;6.062;2023-09-12T00:44:44;47.88;;;28.10;;
52898;SDS011;38763;53.096;6.062;2023-09-12T00:47:10;50.92;;;28.67;;
52898;SDS011;38763;53.096;6.062;2023-09-12T00:49:36;49.40;;;29.25;;
52898;SDS011;38763;53.096;6.062;2023-09-12T00:52:03;51.80;;;29.23;;
52898;SDS011;38763;53.096;6.062;2023-09-12T00:54:29;47.33;;;28.80;;
52898;SDS011;38763;53.096;6.062;2023-09-12T00:56:55;52.25;;;29.08;;
52898;SDS011;38763;53.096;6.062;2023-09-12T00:59:21;45.80;;;27.35;;
52898;SDS011;38763;53.096;6.062;2023-09-12T01:01:47;46.72;;;27.88;;
52898;SDS011;38763;53.096;6.062;2023-09-12T01:04:13;47.00;;;28.45;;
52898;SDS011;38763;53.096;6.062;2023-09-12T01:06:39;49.92;;;29.20;;
52898;SDS011;38763;53.096;6.062;2023-09-12T01:09:05;49.00;;;28.30;;
52898;SDS011;38763;53.096;6.062;2023-09-12T01:11:31;50.80;;;29.95;;
52898;SDS011;38763;53.096;6.062;2023-09-12T01:13:57;53.78;;;29.05;;
52898;SDS011;38763;53.096;6.062;2023-09-12T01:16:23;53.58;;;28.92;;
52898;SDS011;38763;53.096;6.062;2023-09-12T01:18:49;51.63;;;29.30;;
52898;SDS011;38763;53.096;6.062;2023-09-12T01:24:07;50.78;;;28.13;;
52898;SDS011;38763;53.096;6.062;2023-09-12T01:27:28;49.75;;;27.85;;
52898;SDS011;38763;53.096;6.062;2023-09-12T01:30:03;47.13;;;27.30;;
52898;SDS011;38763;53.096;6.062;2023-09-12T01:32:33;46.95;;;27.65;;
52898;SDS011;38763;53.096;6.062;2023-09-12T01:35:00;46.92;;;28.63;;
52898;SDS011;38763;53.096;6.062;2023-09-12T01:37:29;49.50;;;28.10;;
52898;SDS011;38763;53.096;6.062;2023-09-12T01:39:57;46.00;;;26.98;;
52898;SDS011;38763;53.096;6.062;2023-09-12T01:42:23;51.30;;;29.10;;
52898;SDS011;38763;53.096;6.062;2023-09-12T01:44:56;45.80;;;27.23;;
52898;SDS011;38763;53.096;6.062;2023-09-12T01:47:23;50.63;;;28.08;;
52898;SDS011;38763;53.096;6.062;2023-09-12T01:49:52;45.67;;;27.08;;
52898;SDS011;38763;53.096;6.062;2023-09-12T01:52:21;50.22;;;28.48;;
52898;SDS011;38763;53.096;6.062;2023-09-12T01:54:47;45.28;;;27.55;;
52898;SDS011;38763;53.096;6.062;2023-09-12T01:57:15;44.88;;;27.90;;
52898;SDS011;38763;53.096;6.062;2023-09-12T01:59:41;48.03;;;28.42;;
52898;SDS011;38763;53.096;6.062;2023-09-12T02:02:07;46.70;;;27.65;;
52898;SDS011;38763;53.096;6.062;2023-09-12T02:04:32;52.28;;;27.60;;
52898;SDS011;38763;53.096;6.062;2023-09-12T02:06:58;49.95;;;27.05;;
52898;SDS011;38763;53.096;6.062;2023-09-12T02:09:24;52.20;;;28.15;;
52898;SDS011;38763;53.096;6.062;2023-09-12T02:11:50;47.83;;;27.85;;
52898;SDS011;38763;53.096;6.062;2023-09-12T02:14:16;51.88;;;27.35;;
52898;SDS011;38763;53.096;6.062;2023-09-12T02:16:43;47.15;;;26.67;;
52898;SDS011;38763;53.096;6.062;2023-09-12T02:19:09;50.38;;;27.23;;
52898;SDS011;38763;53.096;6.062;2023-09-12T02:21:35;45.65;;;26.98;;
52898;SDS011;38763;53.096;6.062;2023-09-12T02:24:00;53.80;;;27.92;;
52898;SDS011;38763;53.096;6.062;2023-09-12T02:26:26;52.70;;;30.25;;
52898;SDS011;38763;53.096;6.062;2023-09-12T02:28:52;48.60;;;27.75;;
52898;SDS011;38763;53.096;6.062;2023-09-12T02:31:17;50.72;;;27.83;;
52898;SDS011;38763;53.096;6.062;2023-09-12T02:33:43;49.65;;;28.05;;
52898;SDS011;38763;53.096;6.062;2023-09-12T02:36:09;50.30;;;27.83;;
52898;SDS011;38763;53.096;6.062;2023-09-12T02:38:34;47.47;;;27.90;;
52898;SDS011;38763;53.096;6.062;2023-09-12T02:41:00;51.92;;;28.67;;
52898;SDS011;38763;53.096;6.062;2023-09-12T02:43:27;50.47;;;28.65;;
52898;SDS011;38763;53.096;6.062;2023-09-12T02:45:54;52.92;;;28.55;;
52898;SDS011;38763;53.096;6.062;2023-09-12T02:48:19;56.08;;;29.63;;
52898;SDS011;38763;53.096;6.062;2023-09-12T02:50:45;56.67;;;30.05;;
52898;SDS011;38763;53.096;6.062;2023-09-12T02:53:10;56.65;;;30.05;;
52898;SDS011;38763;53.096;6.062;2023-09-12T02:55:39;55.35;;;29.55;;
52898;SDS011;38763;53.096;6.062;2023-09-12T02:58:06;53.45;;;28.90;;
52898;SDS011;38763;53.096;6.062;2023-09-12T03:00:31;52.03;;;28.58;;
52898;SDS011;38763;53.096;6.062;2023-09-12T03:02:57;54.20;;;29.48;;
52898;SDS011;38763;53.096;6.062;2023-09-12T03:05:22;54.92;;;30.05;;
52898;SDS011;38763;53.096;6.062;2023-09-12T03:07:48;55.67;;;29.13;;
52898;SDS011;38763;53.096;6.062;2023-09-12T03:10:14;84.68;;;29.45;;
52898;SDS011;38763;53.096;6.062;2023-09-12T03:12:40;73.00;;;30.08;;
52898;SDS011;38763;53.096;6.062;2023-09-12T03:15:06;74.85;;;30.58;;
52898;SDS011;38763;53.096;6.062;2023-09-12T03:17:32;57.38;;;30.30;;
52898;SDS011;38763;53.096;6.062;2023-09-12T03:19:57;77.25;;;31.83;;
52898;SDS011;38763;53.096;6.062;2023-09-12T03:22:23;67.47;;;31.23;;
52898;SDS011;38763;53.096;6.062;2023-09-12T03:24:49;64.97;;;31.33;;
52898;SDS011;38763;53.096;6.062;2023-09-12T03:27:15;67.10;;;31.02;;
52898;SDS011;38763;53.096;6.062;2023-09-12T03:29:40;77.50;;;30.92;;
52898;SDS011;38763;53.096;6.062;2023-09-12T03:32:06;104.88;;;29.92;;
52898;SDS011;38763;53.096;6.062;2023-09-12T03:34:32;98.82;;;30.75;;
52898;SDS011;38763;53.096;6.062;2023-09-12T03:36:57;150.23;;;33.30;;
52898;SDS011;38763;53.096;6.062;2023-09-12T03:39:23;138.98;;;31.17;;
52898;SDS011;38763;53.096;6.062;2023-09-12T03:41:49;82.05;;;29.48;;
52898;SDS011;38763;53.096;6.062;2023-09-12T03:44:14;108.68;;;28.67;;
52898;SDS011;38763;53.096;6.062;2023-09-12T03:46:40;138.07;;;30.00;;
52898;SDS011;38763;53.096;6.062;2023-09-12T03:49:05;240.60;;;32.58;;
52898;SDS011;38763;53.096;6.062;2023-09-12T03:51:31;210.90;;;33.10;;
52898;SDS011;38763;53.096;6.062;2023-09-12T03:53:58;161.75;;;30.23;;
52898;SDS011;38763;53.096;6.062;2023-09-12T03:56:23;124.55;;;30.35;;
52898;SDS011;38763;53.096;6.062;2023-09-12T03:58:49;278.60;;;33.25;;
52898;SDS011;38763;53.096;6.062;2023-09-12T04:01:15;128.07;;;29.00;;
52898;SDS011;38763;53.096;6.062;2023-09-12T04:03:41;222.13;;;31.30;;
52898;SDS011;38763;53.096;6.062;2023-09-12T04:06:06;290.40;;;35.30;;
52898;SDS011;38763;53.096;6.062;2023-09-12T04:08:32;156.40;;;31.05;;
52898;SDS011;38763;53.096;6.062;2023-09-12T04:10:58;251.45;;;34.20;;
52898;SDS011;38763;53.096;6.062;2023-09-12T04:13:23;215.73;;;32.08;;
52898;SDS011;38763;53.096;6.062;2023-09-12T04:15:49;219.75;;;32.53;;
52898;SDS011;38763;53.096;6.062;2023-09-12T04:18:14;284.52;;;34.25;;
52898;SDS011;38763;53.096;6.062;2023-09-12T04:20:40;365.83;;;37.35;;
52898;SDS011;38763;53.096;6.062;2023-09-12T04:23:06;139.45;;;31.33;;
52898;SDS011;38763;53.096;6.062;2023-09-12T04:25:31;271.55;;;36.03;;
52898;SDS011;38763;53.096;6.062;2023-09-12T04:27:58;200.18;;;33.70;;
52898;SDS011;38763;53.096;6.062;2023-09-12T04:30:24;125.70;;;31.42;;
52898;SDS011;38763;53.096;6.062;2023-09-12T04:32:49;177.10;;;33.50;;
52898;SDS011;38763;53.096;6.062;2023-09-12T04:35:15;202.25;;;35.40;;
52898;SDS011;38763;53.096;6.062;2023-09-12T04:37:42;159.75;;;32.58;;
52898;SDS011;38763;53.096;6.062;2023-09-12T04:40:08;117.13;;;32.40;;
52898;SDS011;38763;53.096;6.062;2023-09-12T04:42:34;286.00;;;38.30;;
52898;SDS011;38763;53.096;6.062;2023-09-12T04:45:00;158.88;;;33.55;;
52898;SDS011;38763;53.096;6.062;2023-09-12T04:47:25;247.48;;;37.45;;
52898;SDS011;38763;53.096;6.062;2023-09-12T04:49:52;206.73;;;37.15;;
52898;SDS011;38763;53.096;6.062;2023-09-12T04:52:18;272.23;;;37.25;;
52898;SDS011;38763;53.096;6.062;2023-09-12T04:54:43;140.55;;;33.72;;
52898;SDS011;38763;53.096;6.062;2023-09-12T04:57:09;318.80;;;39.28;;
52898;SDS011;38763;53.096;6.062;2023-09-12T04:59:35;179.80;;;35.83;;
52898;SDS011;38763;53.096;6.062;2023-09-12T05:02:00;290.77;;;39.15;;
52898;SDS011;38763;53.096;6.062;2023-09-12T05:04:28;172.02;;;34.60;;
52898;SDS011;38763;53.096;6.062;2023-09-12T05:06:54;183.18;;;35.90;;
52898;SDS011;38763;53.096;6.062;2023-09-12T05:09:19;298.73;;;41.40;;
52898;SDS011;38763;53.096;6.062;2023-09-12T05:11:45;177.18;;;35.42;;
52898;SDS011;38763;53.096;6.062;2023-09-12T05:14:10;252.60;;;36.83;;
52898;SDS011;38763;53.096;6.062;2023-09-12T05:16:36;179.50;;;35.55;;
52898;SDS011;38763;53.096;6.062;2023-09-12T05:19:02;198.68;;;36.78;;
52898;SDS011;38763;53.096;6.062;2023-09-12T05:21:28;138.07;;;34.22;;
52898;SDS011;38763;53.096;6.062;2023-09-12T05:23:54;250.00;;;38.45;;
52898;SDS011;38763;53.096;6.062;2023-09-12T05:26:20;199.57;;;37.38;;
52898;SDS011;38763;53.096;6.062;2023-09-12T05:28:45;90.20;;;34.28;;
52898;SDS011;38763;53.096;6.062;2023-09-12T05:31:11;88.13;;;35.38;;
52898;SDS011;38763;53.096;6.062;2023-09-12T05:33:36;103.38;;;34.13;;
52898;SDS011;38763;53.096;6.062;2023-09-12T05:36:02;108.65;;;35.13;;
52898;SDS011;38763;53.096;6.062;2023-09-12T05:38:28;77.80;;;34.75;;
52898;SDS011;38763;53.096;6.062;2023-09-12T05:40:53;97.68;;;36.63;;
52898;SDS011;38763;53.096;6.062;2023-09-12T05:43:19;122.80;;;35.97;;
52898;SDS011;38763;53.096;6.062;2023-09-12T05:45:45;86.22;;;36.28;;
52898;SDS011;38763;53.096;6.062;2023-09-12T05:48:10;123.57;;;36.55;;
52898;SDS011;38763;53.096;6.062;2023-09-12T05:50:36;85.18;;;35.58;;
52898;SDS011;38763;53.096;6.062;2023-09-12T05:53:02;196.52;;;36.67;;
52898;SDS011;38763;53.096;6.062;2023-09-12T05:55:28;161.50;;;36.75;;
52898;SDS011;38763;53.096;6.062;2023-09-12T05:57:54;242.77;;;38.38;;
52898;SDS011;38763;53.096;6.062;2023-09-12T06:00:20;245.90;;;40.03;;
52898;SDS011;38763;53.096;6.062;2023-09-12T06:02:49;222.57;;;37.30;;
52898;SDS011;38763;53.096;6.062;2023-09-12T06:05:15;337.92;;;40.90;;
52898;SDS011;38763;53.096;6.062;2023-09-12T06:07:41;285.10;;;37.92;;
52898;SDS011;38763;53.096;6.062;2023-09-12T06:10:10;383.48;;;43.20;;
52898;SDS011;38763;53.096;6.062;2023-09-12T06:12:35;503.02;;;46.55;;
52898;SDS011;38763;53.096;6.062;2023-09-12T06:15:01;311.83;;;40.55;;
52898;SDS011;38763;53.096;6.062;2023-09-12T06:17:30;321.75;;;40.55;;
52898;SDS011;38763;53.096;6.062;2023-09-12T06:19:56;443.77;;;47.15;;
52898;SDS011;38763;53.096;6.062;2023-09-12T06:22:22;407.00;;;45.05;;
52898;SDS011;38763;53.096;6.062;2023-09-12T06:24:48;264.98;;;41.83;;
52898;SDS011;38763;53.096;6.062;2023-09-12T06:27:15;430.65;;;46.75;;
52898;SDS011;38763;53.096;6.062;2023-09-12T06:29:44;341.33;;;43.97;;
52898;SDS011;38763;53.096;6.062;2023-09-12T06:32:12;305.20;;;43.25;;
52898;SDS011;38763;53.096;6.062;2023-09-12T06:34:38;267.75;;;45.03;;
52898;SDS011;38763;53.096;6.062;2023-09-12T06:37:03;247.80;;;43.03;;
52898;SDS011;38763;53.096;6.062;2023-09-12T06:39:29;188.63;;;44.65;;
52898;SDS011;38763;53.096;6.062;2023-09-12T06:41:55;208.57;;;42.88;;
52898;SDS011;38763;53.096;6.062;2023-09-12T06:44:20;210.50;;;43.15;;
52898;SDS011;38763;53.096;6.062;2023-09-12T06:46:46;169.38;;;41.40;;
52898;SDS011;38763;53.096;6.062;2023-09-12T06:49:11;153.85;;;43.17;;
52898;SDS011;38763;53.096;6.062;2023-09-12T06:51:37;139.32;;;42.65;;
52898;SDS011;38763;53.096;6.062;2023-09-12T06:54:03;152.90;;;42.85;;
52898;SDS011;38763;53.096;6.062;2023-09-12T06:56:28;137.98;;;45.78;;
52898;SDS011;38763;53.096;6.062;2023-09-12T06:58:54;158.15;;;46.45;;
52898;SDS011;38763;53.096;6.062;2023-09-12T07:01:20;144.65;;;46.08;;
52898;SDS011;38763;53.096;6.062;2023-09-12T07:03:46;132.73;;;46.78;;
52898;SDS011;38763;53.096;6.062;2023-09-12T07:06:12;161.23;;;49.22;;
52898;SDS011;38763;53.096;6.062;2023-09-12T07:08:38;155.23;;;48.72;;
52898;SDS011;38763;53.096;6.062;2023-09-12T07:11:04;145.68;;;45.00;;
52898;SDS011;38763;53.096;6.062;2023-09-12T07:13:34;126.60;;;45.30;;
52898;SDS011;38763;53.096;6.062;2023-09-12T07:16:00;153.45;;;47.10;;
52898;SDS011;38763;53.096;6.062;2023-09-12T07:18:29;130.60;;;44.75;;
52898;SDS011;38763;53.096;6.062;2023-09-12T07:21:04;131.27;;;47.92;;
52898;SDS011;38763;53.096;6.062;2023-09-12T07:23:31;127.00;;;44.88;;
52898;SDS011;38763;53.096;6.062;2023-09-12T07:25:57;150.85;;;46.22;;
52898;SDS011;38763;53.096;6.062;2023-09-12T07:28:26;144.48;;;46.92;;
52898;SDS011;38763;53.096;6.062;2023-09-12T07:30:53;132.80;;;45.20;;
52898;SDS011;38763;53.096;6.062;2023-09-12T07:33:19;140.55;;;48.80;;
52898;SDS011;38763;53.096;6.062;2023-09-12T07:35:46;148.15;;;47.03;;
52898;SDS011;38763;53.096;6.062;2023-09-12T07:38:12;142.63;;;45.42;;
52898;SDS011;38763;53.096;6.062;2023-09-12T07:40:40;132.65;;;44.08;;
52898;SDS011;38763;53.096;6.062;2023-09-12T07:43:06;128.48;;;44.38;;
52898;SDS011;38763;53.096;6.062;2023-09-12T07:45:32;144.90;;;47.25;;
52898;SDS011;38763;53.096;6.062;2023-09-12T07:48:03;118.95;;;45.55;;
52898;SDS011;38763;53.096;6.062;2023-09-12T07:50:36;126.93;;;45.45;;
52898;SDS011;38763;53.096;6.062;2023-09-12T07:53:04;129.80;;;45.90;;
52898;SDS011;38763;53.096;6.062;2023-09-12T07:55:30;117.72;;;44.38;;
52898;SDS011;38763;53.096;6.062;2023-09-12T07:58:01;123.57;;;44.17;;
52898;SDS011;38763;53.096;6.062;2023-09-12T08:00:29;110.25;;;42.88;;
52898;SDS011;38763;53.096;6.062;2023-09-12T08:02:54;103.40;;;42.90;;
52898;SDS011;38763;53.096;6.062;2023-09-12T08:05:20;107.10;;;43.17;;
52898;SDS011;38763;53.096;6.062;2023-09-12T08:07:46;103.55;;;41.88;;
52898;SDS011;38763;53.096;6.062;2023-09-12T08:10:11;102.38;;;43.10;;
52898;SDS011;38763;53.096;6.062;2023-09-12T08:12:37;107.00;;;43.13;;
52898;SDS011;38763;53.096;6.062;2023-09-12T08:15:06;101.78;;;42.55;;
52898;SDS011;38763;53.096;6.062;2023-09-12T08:17:33;105.50;;;42.58;;
52898;SDS011;38763;53.096;6.062;2023-09-12T08:19:58;96.97;;;41.47;;
52898;SDS011;38763;53.096;6.062;2023-09-12T08:22:24;88.95;;;39.70;;
52898;SDS011;38763;53.096;6.062;2023-09-12T08:24:49;85.47;;;38.88;;
52898;SDS011;38763;53.096;6.062;2023-09-12T08:27:15;88.57;;;40.15;;
52898;SDS011;38763;53.096;6.062;2023-09-12T08:29:41;93.43;;;40.88;;
52898;SDS011;38763;53.096;6.062;2023-09-12T08:32:07;96.95;;;41.35;;
52898;SDS011;38763;53.096;6.062;2023-09-12T08:34:32;93.05;;;41.92;;
52898;SDS011;38763;53.096;6.062;2023-09-12T08:36:58;94.93;;;42.22;;
52898;SDS011;38763;53.096;6.062;2023-09-12T08:39:25;96.80;;;40.38;;
52898;SDS011;38763;53.096;6.062;2023-09-12T08:41:51;93.18;;;40.58;;
52898;SDS011;38763;53.096;6.062;2023-09-12T08:44:18;88.47;;;39.75;;
52898;SDS011;38763;53.096;6.062;2023-09-12T08:46:45;94.72;;;42.60;;
52898;SDS011;38763;53.096;6.062;2023-09-12T08:49:11;88.05;;;41.00;;
52898;SDS011;38763;53.096;6.062;2023-09-12T08:51:40;83.28;;;39.65;;
52898;SDS011;38763;53.096;6.062;2023-09-12T08:54:06;88.80;;;40.30;;
52898;SDS011;38763;53.096;6.062;2023-09-12T08:56:34;85.20;;;39.97;;
52898;SDS011;38763;53.096;6.062;2023-09-12T08:59:03;87.32;;;39.83;;
52898;SDS011;38763;53.096;6.062;2023-09-12T09:01:30;82.45;;;38.85;;
52898;SDS011;38763;53.096;6.062;2023-09-12T09:03:57;84.18;;;38.50;;
52898;SDS011;38763;53.096;6.062;2023-09-12T09:06:23;80.95;;;38.08;;
52898;SDS011;38763;53.096;6.062;2023-09-12T09:08:50;75.88;;;37.85;;
52898;SDS011;38763;53.096;6.062;2023-09-12T09:11:18;81.78;;;38.65;;
52898;SDS011;38763;53.096;6.062;2023-09-12T09:13:44;70.07;;;37.20;;
52898;SDS011;38763;53.096;6.062;2023-09-12T09:18:52;68.30;;;35.42;;
52898;SDS011;38763;53.096;6.062;2023-09-12T09:21:20;65.88;;;32.83;;
52898;SDS011;38763;53.096;6.062;2023-09-12T09:23:50;63.70;;;34.15;;
52898;SDS011;38763;53.096;6.062;2023-09-12T09:26:17;65.47;;;34.45;;
52898;SDS011;38763;53.096;6.062;2023-09-12T09:28:42;64.95;;;33.97;;
52898;SDS011;38763;53.096;6.062;2023-09-12T09:31:11;65.20;;;33.88;;
52898;SDS011;38763;53.096;6.062;2023-09-12T09:33:41;62.15;;;32.83;;
52898;SDS011;38763;53.096;6.062;2023-09-12T09:36:16;66.10;;;32.95;;
52898;SDS011;38763;53.096;6.062;2023-09-12T09:38:41;60.20;;;32.22;;
52898;SDS011;38763;53.096;6.062;2023-09-12T09:41:08;65.35;;;33.50;;
52898;SDS011;38763;53.096;6.062;2023-09-12T09:43:34;57.50;;;31.40;;
52898;SDS011;38763;53.096;6.062;2023-09-12T09:46:01;53.70;;;30.27;;
52898;SDS011;38763;53.096;6.062;2023-09-12T09:48:28;56.50;;;30.67;;
52898;SDS011;38763;53.096;6.062;2023-09-12T09:51:02;49.83;;;29.42;;
52898;SDS011;38763;53.096;6.062;2023-09-12T09:53:31;49.53;;;28.73;;
52898;SDS011;38763;53.096;6.062;2023-09-12T09:56:18;52.50;;;29.83;;
52898;SDS011;38763;53.096;6.062;2023-09-12T09:58:46;50.17;;;29.77;;
52898;SDS011;38763;53.096;6.062;2023-09-12T10:01:23;42.53;;;24.52;;
52898;SDS011;38763;53.096;6.062;2023-09-12T10:03:53;38.50;;;21.13;;
52898;SDS011;38763;53.096;6.062;2023-09-12T10:06:23;32.53;;;19.98;;
52898;SDS011;38763;53.096;6.062;2023-09-12T10:08:52;28.65;;;16.67;;
52898;SDS011;38763;53.096;6.062;2023-09-12T10:11:20;27.08;;;17.35;;
52898;SDS011;38763;53.096;6.062;2023-09-12T10:13:49;27.67;;;14.85;;
52898;SDS011;38763;53.096;6.062;2023-09-12T10:16:19;25.70;;;14.98;;
52898;SDS011;38763;53.096;6.062;2023-09-12T10:18:56;23.80;;;13.95;;
52898;SDS011;38763;53.096;6.062;2023-09-12T10:21:30;22.20;;;13.32;;
52898;SDS011;38763;53.096;6.062;2023-09-12T10:23:57;24.02;;;13.90;;
52898;SDS011;38763;53.096;6.062;2023-09-12T10:26:24;23.40;;;14.68;;
52898;SDS011;38763;53.096;6.062;2023-09-12T10:28:50;26.27;;;15.32;;
52898;SDS011;38763;53.096;6.062;2023-09-12T10:31:17;24.55;;;15.27;;
52898;SDS011;38763;53.096;6.062;2023-09-12T10:33:44;24.77;;;15.00;;
52898;SDS011;38763;53.096;6.062;2023-09-12T10:36:11;24.08;;;14.32;;
52898;SDS011;38763;53.096;6.062;2023-09-12T10:38:42;28.20;;;16.55;;
52898;SDS011;38763;53.096;6.062;2023-09-12T10:41:12;28.20;;;15.65;;
52898;SDS011;38763;53.096;6.062;2023-09-12T10:43:39;25.65;;;14.43;;
52898;SDS011;38763;53.096;6.062;2023-09-12T10:46:06;24.05;;;14.77;;
52898;SDS011;38763;53.096;6.062;2023-09-12T10:48:32;21.10;;;14.27;;
52898;SDS011;38763;53.096;6.062;2023-09-12T10:51:00;23.50;;;14.02;;
52898;SDS011;38763;53.096;6.062;2023-09-12T10:53:30;20.33;;;12.48;;
52898;SDS011;38763;53.096;6.062;2023-09-12T10:58:38;20.25;;;12.07;;
52898;SDS011;38763;53.096;6.062;2023-09-12T11:01:38;22.08;;;11.40;;
52898;SDS011;38763;53.096;6.062;2023-09-12T11:06:52;20.40;;;12.55;;
52898;SDS011;38763;53.096;6.062;2023-09-12T11:09:21;20.85;;;12.95;;
52898;SDS011;38763;53.096;6.062;2023-09-12T11:11:48;21.58;;;12.43;;
52898;SDS011;38763;53.096;6.062;2023-09-12T11:14:26;25.63;;;12.82;;
52898;SDS011;38763;53.096;6.062;2023-09-12T11:19:46;20.60;;;13.40;;
52898;SDS011;38763;53.096;6.062;2023-09-12T11:22:30;21.58;;;12.73;;
52898;SDS011;38763;53.096;6.062;2023-09-12T11:24:57;25.85;;;13.02;;
52898;SDS011;38763;53.096;6.062;2023-09-12T11:27:30;23.33;;;11.25;;
52898;SDS011;38763;53.096;6.062;2023-09-12T11:30:04;20.67;;;11.77;;
52898;SDS011;38763;53.096;6.062;2023-09-12T11:32:31;17.00;;;9.25;;
52898;SDS011;38763;53.096;6.062;2023-09-12T11:34:58;15.85;;;9.10;;
52898;SDS011;38763;53.096;6.062;2023-09-12T11:37:29;15.30;;;8.23;;
52898;SDS011;38763;53.096;6.062;2023-09-12T11:39:55;15.32;;;8.82;;
52898;SDS011;38763;53.096;6.062;2023-09-12T11:42:22;16.00;;;9.88;;
52898;SDS011;38763;53.096;6.062;2023-09-12T11:44:50;18.67;;;10.82;;
52898;SDS011;38763;53.096;6.062;2023-09-12T11:47:17;16.58;;;10.45;;
52898;SDS011;38763;53.096;6.062;2023-09-12T11:49:43;20.50;;;11.07;;
52898;SDS011;38763;53.096;6.062;2023-09-12T11:52:10;18.98;;;10.88;;
52898;SDS011;38763;53.096;6.062;2023-09-12T11:54:38;18.02;;;10.13;;
52898;SDS011;38763;53.096;6.062;2023-09-12T11:57:05;19.45;;;10.60;;
52898;SDS011;38763;53.096;6.062;2023-09-12T11:59:33;18.35;;;10.68;;
52898;SDS011;38763;53.096;6.062;2023-09-12T12:02:05;17.65;;;10.50;;
52898;SDS011;38763;53.096;6.062;2023-09-12T12:04:31;16.13;;;10.02;;
52898;SDS011;38763;53.096;6.062;2023-09-12T12:06:57;19.05;;;10.23;;
52898;SDS011;38763;53.096;6.062;2023-09-12T12:09:23;15.00;;;9.07;;
52898;SDS011;38763;53.096;6.062;2023-09-12T12:11:49;18.30;;;8.48;;
52898;SDS011;38763;53.096;6.062;2023-09-12T12:14:17;16.00;;;9.05;;
52898;SDS011;38763;53.096;6.062;2023-09-12T12:16:45;17.15;;;10.00;;
52898;SDS011;38763;53.096;6.062;2023-09-12T12:19:14;18.52;;;9.93;;
52898;SDS011;38763;53.096;6.062;2023-09-12T12:21:40;19.77;;;9.45;;
52898;SDS011;38763;53.096;6.062;2023-09-12T12:24:07;16.30;;;10.63;;
52898;SDS011;38763;53.096;6.062;2023-09-12T12:26:35;14.80;;;9.20;;
52898;SDS011;38763;53.096;6.062;2023-09-12T12:29:01;12.60;;;7.45;;
52898;SDS011;38763;53.096;6.062;2023-09-12T12:31:27;12.43;;;7.30;;
52898;SDS011;38763;53.096;6.062;2023-09-12T12:33:54;14.77;;;8.63;;
52898;SDS011;38763;53.096;6.062;2023-09-12T12:36:19;13.30;;;7.90;;
52898;SDS011;38763;53.096;6.062;2023-09-12T12:38:49;13.63;;;8.25;;
52898;SDS011;38763;53.096;6.062;2023-09-12T12:41:27;16.55;;;8.13;;
52898;SDS011;38763;53.096;6.062;2023-09-12T12:43:56;14.77;;;8.77;;
52898;SDS011;38763;53.096;6.062;2023-09-12T12:46:26;15.25;;;9.43;;
52898;SDS011;38763;53.096;6.062;2023-09-12T12:48:52;16.40;;;9.90;;
52898;SDS011;38763;53.096;6.062;2023-09-12T12:51:18;16.42;;;8.10;;
52898;SDS011;38763;53.096;6.062;2023-09-12T12:53:48;13.75;;;7.15;;
52898;SDS011;38763;53.096;6.062;2023-09-12T12:56:26;12.82;;;7.38;;
52898;SDS011;38763;53.096;6.062;2023-09-12T12:58:56;12.27;;;6.65;;
52898;SDS011;38763;53.096;6.062;2023-09-12T13:01:24;9.82;;;6.78;;
52898;SDS011;38763;53.096;6.062;2023-09-12T13:03:50;9.35;;;6.25;;
52898;SDS011;38763;53.096;6.062;2023-09-12T13:06:16;10.55;;;6.85;;
52898;SDS011;38763;53.096;6.062;2023-09-12T13:08:43;9.52;;;6.18;;
52898;SDS011;38763;53.096;6.062;2023-09-12T13:11:11;14.07;;;8.13;;
52898;SDS011;38763;53.096;6.062;2023-09-12T13:13:38;15.02;;;7.93;;
52898;SDS011;38763;53.096;6.062;2023-09-12T13:16:05;14.88;;;8.10;;
52898;SDS011;38763;53.096;6.062;2023-09-12T13:18:34;13.40;;;7.57;;
52898;SDS011;38763;53.096;6.062;2023-09-12T13:21:04;14.00;;;7.80;;
52898;SDS011;38763;53.096;6.062;2023-09-12T13:23:30;10.98;;;7.57;;
52898;SDS011;38763;53.096;6.062;2023-09-12T13:25:56;11.13;;;7.22;;
52898;SDS011;38763;53.096;6.062;2023-09-12T13:28:22;11.43;;;6.35;;
52898;SDS011;38763;53.096;6.062;2023-09-12T13:30:51;9.95;;;5.90;;
52898;SDS011;38763;53.096;6.062;2023-09-12T13:33:18;9.35;;;6.40;;
52898;SDS011;38763;53.096;6.062;2023-09-12T13:35:44;10.52;;;5.97;;
52898;SDS011;38763;53.096;6.062;2023-09-12T13:38:09;11.50;;;6.10;;
52898;SDS011;38763;53.096;6.062;2023-09-12T13:40:38;8.80;;;4.97;;
52898;SDS011;38763;53.096;6.062;2023-09-12T13:43:05;10.25;;;5.22;;
52898;SDS011;38763;53.096;6.062;2023-09-12T13:45:31;9.40;;;5.13;;
52898;SDS011;38763;53.096;6.062;2023-09-12T13:47:57;10.68;;;5.30;;
52898;SDS011;38763;53.096;6.062;2023-09-12T13:50:24;9.65;;;5.18;;
52898;SDS011;38763;53.096;6.062;2023-09-12T13:52:50;10.55;;;5.95;;
52898;SDS011;38763;53.096;6.062;2023-09-12T13:55:18;10.52;;;5.35;;
52898;SDS011;38763;53.096;6.062;2023-09-12T13:57:43;7.95;;;4.68;;
52898;SDS011;38763;53.096;6.062;2023-09-12T14:00:09;8.00;;;4.43;;
52898;SDS011;38763;53.096;6.062;2023-09-12T14:02:35;9.70;;;4.20;;
52898;SDS011;38763;53.096;6.062;2023-09-12T14:05:01;7.18;;;4.45;;
52898;SDS011;38763;53.096;6.062;2023-09-12T14:07:26;9.32;;;4.20;;
52898;SDS011;38763;53.096;6.062;2023-09-12T14:09:52;7.53;;;4.32;;
52898;SDS011;38763;53.096;6.062;2023-09-12T14:12:21;6.55;;;3.95;;
52898;SDS011;38763;53.096;6.062;2023-09-12T14:14:47;9.15;;;4.78;;
52898;SDS011;38763;53.096;6.062;2023-09-12T14:17:13;8.30;;;4.60;;
52898;SDS011;38763;53.096;6.062;2023-09-12T14:19:39;7.80;;;4.78;;
52898;SDS011;38763;53.096;6.062;2023-09-12T14:22:05;9.52;;;4.20;;
52898;SDS011;38763;53.096;6.062;2023-09-12T14:24:30;8.35;;;4.22;;
52898;SDS011;38763;53.096;6.062;2023-09-12T14:26:56;8.63;;;4.20;;
52898;SDS011;38763;53.096;6.062;2023-09-12T14:29:21;9.63;;;4.55;;
52898;SDS011;38763;53.096;6.062;2023-09-12T14:31:48;9.40;;;4.40;;
52898;SDS011;38763;53.096;6.062;2023-09-12T14:34:18;8.85;;;4.97;;